createdAt,value
2023-02-16T00:00:26.916Z,7.60
2023-02-16T00:01:27.099Z,7.56
2023-02-16T00:02:27.345Z,7.55
2023-02-16T00:03:27.709Z,7.55
2023-02-16T00:04:28.170Z,7.47
2023-02-16T00:05:28.654Z,7.26
2023-02-16T00:06:28.060Z,7.29
2023-02-16T00:07:29.622Z,7.29
2023-02-16T00:08:28.382Z,7.15
2023-02-16T00:09:28.597Z,7.15
2023-02-16T00:10:28.806Z,7.12
2023-02-16T00:11:28.988Z,7.32
2023-02-16T00:12:29.161Z,7.24
2023-02-16T00:13:29.327Z,7.41
2023-02-16T00:14:29.546Z,7.60
2023-02-16T00:15:29.742Z,7.59
2023-02-16T00:16:29.931Z,7.74
2023-02-16T00:17:31.121Z,7.74
2023-02-16T00:18:30.242Z,7.81
2023-02-16T00:19:31.121Z,7.82
2023-02-16T00:20:30.642Z,7.85
2023-02-16T00:21:30.826Z,7.92
2023-02-16T00:22:31.000Z,7.90
2023-02-16T00:23:32.113Z,7.93
2023-02-16T00:24:31.324Z,7.90
2023-02-16T00:25:31.469Z,8.08
2023-02-16T00:26:31.718Z,8.03
2023-02-16T00:27:33.616Z,8.04
2023-02-16T00:28:31.990Z,7.94
2023-02-16T00:29:33.122Z,8.00
2023-02-16T00:30:33.134Z,7.85
2023-02-16T00:31:32.664Z,7.93
2023-02-16T00:32:32.773Z,7.87
2023-02-16T00:33:32.970Z,7.75
2023-02-16T00:34:33.660Z,7.60
2023-02-16T00:35:33.282Z,7.53
2023-02-16T00:36:35.130Z,7.53
2023-02-16T00:37:33.673Z,7.60
2023-02-16T00:38:33.820Z,7.44
2023-02-16T00:39:33.966Z,7.35
2023-02-16T00:40:34.634Z,7.35
2023-02-16T00:41:34.268Z,7.23
2023-02-16T00:42:35.123Z,7.13
2023-02-16T00:43:34.622Z,7.12
2023-02-16T00:44:34.762Z,7.13
2023-02-16T00:45:34.962Z,7.09
2023-02-16T00:46:35.156Z,7.12
2023-02-16T00:47:35.255Z,7.19
2023-02-16T00:48:35.397Z,7.09
2023-02-16T00:49:35.550Z,7.24
2023-02-16T00:50:35.696Z,7.27
2023-02-16T00:51:36.677Z,7.24
2023-02-16T00:52:36.076Z,7.27
2023-02-16T00:53:36.244Z,7.49
2023-02-16T00:54:36.422Z,7.55
2023-02-16T00:55:37.633Z,7.62
2023-02-16T00:56:37.671Z,7.79
2023-02-16T00:57:38.127Z,7.79
2023-02-16T00:58:37.130Z,7.89
2023-02-16T00:59:38.129Z,7.92
2023-02-16T01:00:38.995Z,7.90
2023-02-16T01:01:38.658Z,7.93
2023-02-16T01:02:37.938Z,7.81
2023-02-16T01:03:38.628Z,7.79
2023-02-16T01:04:39.784Z,7.78
2023-02-16T01:05:39.632Z,7.90
2023-02-16T01:06:38.654Z,7.82
2023-02-16T01:07:38.831Z,7.87
2023-02-16T01:08:39.005Z,7.87
2023-02-16T01:09:39.190Z,7.89
2023-02-16T01:10:40.377Z,7.81
2023-02-16T01:11:39.497Z,7.89
2023-02-16T01:12:39.656Z,7.96
2023-02-16T01:13:39.798Z,7.84
2023-02-16T01:14:40.670Z,7.89
2023-02-16T01:15:41.660Z,7.90
2023-02-16T01:16:40.418Z,7.89
2023-02-16T01:17:40.545Z,7.93
2023-02-16T01:18:41.670Z,7.87
2023-02-16T01:19:41.628Z,7.94
2023-02-16T01:20:41.211Z,7.93
2023-02-16T01:21:42.137Z,7.96
2023-02-16T01:22:41.521Z,7.79
2023-02-16T01:23:41.699Z,7.92
2023-02-16T01:24:41.887Z,7.92
2023-02-16T01:25:42.062Z,7.92
2023-02-16T01:26:42.233Z,7.87
2023-02-16T01:27:43.171Z,7.85
2023-02-16T01:28:42.549Z,7.77
2023-02-16T01:29:43.736Z,7.85
2023-02-16T01:30:43.630Z,7.77
2023-02-16T01:31:43.766Z,7.90
2023-02-16T01:32:44.139Z,7.79
2023-02-16T01:33:43.408Z,7.81
2023-02-16T01:34:43.564Z,7.81
2023-02-16T01:35:43.747Z,7.75
2023-02-16T01:36:45.630Z,7.74
2023-02-16T01:37:44.679Z,7.78
2023-02-16T01:38:44.354Z,7.81
2023-02-16T01:39:45.215Z,7.81
2023-02-16T01:40:46.503Z,7.82
2023-02-16T01:41:44.882Z,7.89
2023-02-16T01:42:45.057Z,7.82
2023-02-16T01:43:45.212Z,7.87
2023-02-16T01:44:46.003Z,7.81
2023-02-16T01:45:45.505Z,7.81
2023-02-16T01:46:45.796Z,7.82
2023-02-16T01:47:45.851Z,7.78
2023-02-16T01:48:48.001Z,7.81
2023-02-16T01:49:46.225Z,7.84
2023-02-16T01:50:46.387Z,7.77
2023-02-16T01:51:46.561Z,7.75
2023-02-16T01:52:46.710Z,7.75
2023-02-16T01:53:46.875Z,7.79
2023-02-16T01:54:47.637Z,7.82
2023-02-16T01:55:48.144Z,7.85
2023-02-16T01:56:48.183Z,7.78
2023-02-16T01:57:47.576Z,7.82
2023-02-16T01:58:47.769Z,7.74
2023-02-16T01:59:47.901Z,7.77
2023-02-16T02:00:48.031Z,7.72
2023-02-16T02:01:48.281Z,7.79
2023-02-16T02:02:48.370Z,7.81
2023-02-16T02:03:49.140Z,7.82
2023-02-16T02:04:48.781Z,7.82
2023-02-16T02:05:48.920Z,7.94
2023-02-16T02:06:49.127Z,7.85
2023-02-16T02:07:49.284Z,7.78
2023-02-16T02:08:50.134Z,7.79
2023-02-16T02:09:50.640Z,7.78
2023-02-16T02:10:49.788Z,7.67
2023-02-16T02:11:49.970Z,7.81
2023-02-16T02:12:50.195Z,7.67
2023-02-16T02:13:50.271Z,7.69
2023-02-16T02:14:51.009Z,7.66
2023-02-16T02:15:51.686Z,7.55
2023-02-16T02:16:50.838Z,7.67
2023-02-16T02:17:52.142Z,7.66
2023-02-16T02:18:52.145Z,7.58
2023-02-16T02:19:51.413Z,7.56
2023-02-16T02:20:51.607Z,7.59
2023-02-16T02:21:52.646Z,7.59
2023-02-16T02:22:51.992Z,7.72
2023-02-16T02:23:52.165Z,7.72
2023-02-16T02:24:52.334Z,7.60
2023-02-16T02:25:53.486Z,7.66
2023-02-16T02:26:52.628Z,7.58
2023-02-16T02:27:53.691Z,7.60
2023-02-16T02:28:52.968Z,7.62
2023-02-16T02:29:53.222Z,7.56
2023-02-16T02:30:53.333Z,7.60
2023-02-16T02:31:53.600Z,7.53
2023-02-16T02:32:53.741Z,7.56
2023-02-16T02:33:53.915Z,7.56
2023-02-16T02:34:54.652Z,7.47
2023-02-16T02:35:54.303Z,7.60
2023-02-16T02:36:54.474Z,7.55
2023-02-16T02:37:54.647Z,7.53
2023-02-16T02:38:54.809Z,7.58
2023-02-16T02:39:54.983Z,7.58
2023-02-16T02:40:55.729Z,7.55
2023-02-16T02:41:56.308Z,7.49
2023-02-16T02:42:55.450Z,7.47
2023-02-16T02:43:55.622Z,7.49
2023-02-16T02:44:55.810Z,7.55
2023-02-16T02:45:56.692Z,7.40
2023-02-16T02:46:56.370Z,7.47
2023-02-16T02:47:56.325Z,7.31
2023-02-16T02:48:57.156Z,7.26
2023-02-16T02:49:56.644Z,7.27
2023-02-16T02:50:57.660Z,7.26
2023-02-16T02:51:57.656Z,7.24
2023-02-16T02:52:57.285Z,7.29
2023-02-16T02:53:57.466Z,7.26
2023-02-16T02:54:57.627Z,7.26
2023-02-16T02:55:57.818Z,7.20
2023-02-16T02:56:57.990Z,7.27
2023-02-16T02:57:58.166Z,7.35
2023-02-16T02:58:59.162Z,7.29
2023-02-16T02:59:58.571Z,7.47
2023-02-16T03:00:58.840Z,7.42
2023-02-16T03:01:59.717Z,7.55
2023-02-16T03:03:00.025Z,7.56
2023-02-16T03:03:59.330Z,7.66
2023-02-16T03:04:59.530Z,7.45
2023-02-16T03:05:59.757Z,7.59
2023-02-16T03:06:59.978Z,7.53
2023-02-16T03:08:01.022Z,7.71
2023-02-16T03:09:00.324Z,7.58
2023-02-16T03:10:01.157Z,7.56
2023-02-16T03:11:00.718Z,7.60
2023-02-16T03:12:00.927Z,7.67
2023-02-16T03:13:01.709Z,7.56
2023-02-16T03:14:01.283Z,7.60
2023-02-16T03:15:01.516Z,7.59
2023-02-16T03:16:01.663Z,7.60
2023-02-16T03:17:01.754Z,7.60
2023-02-16T03:18:01.922Z,7.67
2023-02-16T03:19:02.666Z,7.66
2023-02-16T03:20:02.721Z,7.58
2023-02-16T03:21:02.887Z,7.63
2023-02-16T03:22:02.689Z,7.66
2023-02-16T03:23:03.701Z,7.56
2023-02-16T03:24:03.123Z,7.58
2023-02-16T03:25:04.164Z,7.67
2023-02-16T03:26:04.230Z,7.50
2023-02-16T03:27:03.646Z,7.58
2023-02-16T03:28:04.663Z,7.59
2023-02-16T03:29:05.163Z,7.42
2023-02-16T03:30:04.318Z,7.59
2023-02-16T03:31:04.917Z,7.49
2023-02-16T03:32:04.771Z,7.47
2023-02-16T03:33:05.780Z,7.47
2023-02-16T03:34:04.951Z,7.44
2023-02-16T03:35:05.667Z,7.44
2023-02-16T03:36:06.214Z,7.42
2023-02-16T03:37:06.021Z,7.45
2023-02-16T03:38:05.701Z,7.42
2023-02-16T03:39:05.895Z,7.42
2023-02-16T03:40:06.660Z,7.42
2023-02-16T03:41:06.699Z,7.42
2023-02-16T03:42:07.319Z,7.42
2023-02-16T03:43:06.501Z,7.41
2023-02-16T03:44:07.670Z,7.41
2023-02-16T03:45:06.795Z,7.31
2023-02-16T03:46:07.022Z,7.29
2023-02-16T03:47:07.128Z,7.31
2023-02-16T03:48:07.331Z,7.35
2023-02-16T03:49:08.163Z,7.47
2023-02-16T03:50:08.206Z,7.47
2023-02-16T03:51:08.678Z,7.45
2023-02-16T03:52:08.670Z,7.44
2023-02-16T03:53:08.252Z,7.41
2023-02-16T03:54:08.444Z,7.44
2023-02-16T03:55:08.654Z,7.45
2023-02-16T03:56:08.857Z,7.45
2023-02-16T03:57:09.037Z,7.41
2023-02-16T03:58:09.221Z,7.22
2023-02-16T03:59:09.430Z,7.26
2023-02-16T04:00:09.662Z,7.32
2023-02-16T04:01:09.921Z,7.26
2023-02-16T04:02:10.180Z,7.29
2023-02-16T04:03:10.291Z,7.22
2023-02-16T04:04:10.586Z,7.19
2023-02-16T04:05:11.244Z,7.22
2023-02-16T04:06:11.676Z,7.22
2023-02-16T04:07:10.975Z,7.26
2023-02-16T04:08:11.195Z,7.27
2023-02-16T04:09:11.436Z,7.19
2023-02-16T04:10:11.645Z,7.27
2023-02-16T04:11:12.711Z,7.16
2023-02-16T04:12:12.008Z,7.15
2023-02-16T04:13:13.197Z,7.17
2023-02-16T04:14:12.366Z,7.13
2023-02-16T04:15:12.583Z,7.19
2023-02-16T04:16:12.893Z,7.02
2023-02-16T04:17:12.990Z,7.05
2023-02-16T04:18:13.718Z,7.05
2023-02-16T04:19:13.282Z,7.07
2023-02-16T04:20:14.169Z,6.98
2023-02-16T04:21:14.171Z,7.02
2023-02-16T04:22:14.745Z,7.08
2023-02-16T04:23:13.916Z,7.07
2023-02-16T04:24:14.126Z,7.05
2023-02-16T04:25:15.107Z,7.02
2023-02-16T04:26:14.491Z,7.12
2023-02-16T04:27:14.697Z,7.12
2023-02-16T04:28:15.715Z,7.07
2023-02-16T04:29:15.720Z,6.99
2023-02-16T04:30:16.314Z,7.09
2023-02-16T04:31:16.268Z,7.09
2023-02-16T04:32:15.721Z,7.09
2023-02-16T04:33:15.741Z,7.13
2023-02-16T04:34:16.668Z,7.16
2023-02-16T04:35:16.130Z,7.17
2023-02-16T04:36:17.187Z,7.09
2023-02-16T04:37:16.348Z,7.12
2023-02-16T04:38:16.578Z,7.02
2023-02-16T04:39:18.684Z,6.97
2023-02-16T04:40:16.928Z,6.95
2023-02-16T04:41:17.676Z,6.87
2023-02-16T04:42:18.216Z,6.89
2023-02-16T04:43:17.509Z,6.90
2023-02-16T04:44:17.697Z,7.04
2023-02-16T04:45:17.868Z,6.90
2023-02-16T04:46:18.054Z,6.90
2023-02-16T04:47:18.683Z,6.86
2023-02-16T04:48:18.399Z,6.91
2023-02-16T04:49:19.217Z,6.89
2023-02-16T04:50:18.748Z,6.91
2023-02-16T04:51:18.906Z,6.87
2023-02-16T04:52:19.072Z,6.91
2023-02-16T04:53:20.249Z,6.84
2023-02-16T04:54:19.382Z,6.77
2023-02-16T04:55:20.118Z,6.65
2023-02-16T04:56:19.746Z,6.54
2023-02-16T04:57:19.941Z,6.48
2023-02-16T04:58:20.225Z,6.46
2023-02-16T04:59:21.184Z,6.26
2023-02-16T05:00:20.444Z,6.40
2023-02-16T05:01:20.693Z,6.22
2023-02-16T05:02:20.833Z,6.14
2023-02-16T05:03:21.011Z,6.09
2023-02-16T05:04:22.211Z,6.06
2023-02-16T05:05:21.426Z,5.93
2023-02-16T05:06:23.195Z,6.00
2023-02-16T05:07:21.822Z,5.96
2023-02-16T05:08:23.691Z,6.09
2023-02-16T05:09:22.176Z,6.32
2023-02-16T05:10:22.312Z,6.44
2023-02-16T05:11:22.479Z,6.59
2023-02-16T05:12:22.646Z,6.86
2023-02-16T05:13:22.798Z,6.80
2023-02-16T05:14:23.585Z,6.89
2023-02-16T05:15:23.116Z,6.84
2023-02-16T05:16:23.298Z,6.87
2023-02-16T05:17:24.196Z,6.87
2023-02-16T05:18:23.610Z,6.90
2023-02-16T05:19:23.769Z,6.94
2023-02-16T05:20:24.236Z,6.87
2023-02-16T05:21:24.143Z,7.01
2023-02-16T05:22:25.188Z,7.01
2023-02-16T05:23:25.045Z,7.12
2023-02-16T05:24:26.144Z,7.16
2023-02-16T05:25:26.684Z,7.09
2023-02-16T05:26:24.948Z,7.20
2023-02-16T05:27:25.235Z,7.23
2023-02-16T05:28:25.340Z,7.09
2023-02-16T05:29:25.447Z,7.09
2023-02-16T05:30:26.280Z,7.13
2023-02-16T05:31:25.954Z,7.12
2023-02-16T05:32:26.131Z,7.01
2023-02-16T05:33:26.262Z,7.16
2023-02-16T05:34:26.428Z,7.12
2023-02-16T05:35:26.609Z,7.07
2023-02-16T05:36:26.796Z,7.09
2023-02-16T05:37:26.980Z,6.97
2023-02-16T05:38:27.177Z,7.02
2023-02-16T05:39:28.192Z,6.91
2023-02-16T05:40:28.190Z,6.99
2023-02-16T05:41:27.716Z,6.97
2023-02-16T05:42:27.920Z,6.91
2023-02-16T05:43:28.132Z,6.86
2023-02-16T05:44:28.350Z,6.86
2023-02-16T05:45:29.230Z,6.81
2023-02-16T05:46:28.700Z,6.91
2023-02-16T05:47:28.809Z,6.91
2023-02-16T05:48:28.994Z,6.98
2023-02-16T05:49:29.206Z,7.01
2023-02-16T05:50:29.442Z,6.99
2023-02-16T05:51:29.666Z,7.05
2023-02-16T05:52:30.737Z,7.12
2023-02-16T05:53:30.063Z,6.98
2023-02-16T05:54:30.262Z,6.99
2023-02-16T05:55:30.432Z,6.97
2023-02-16T05:56:32.196Z,6.91
2023-02-16T05:57:31.254Z,6.90
2023-02-16T05:58:31.042Z,6.91
2023-02-16T05:59:31.242Z,6.77
2023-02-16T06:00:31.464Z,6.66
2023-02-16T06:01:32.236Z,6.65
2023-02-16T06:02:32.764Z,6.61
2023-02-16T06:03:31.974Z,6.43
2023-02-16T06:04:32.142Z,6.29
2023-02-16T06:05:32.339Z,6.29
2023-02-16T06:06:33.220Z,6.10
2023-02-16T06:07:32.760Z,6.18
2023-02-16T06:08:33.709Z,6.10
2023-02-16T06:09:33.702Z,6.03
2023-02-16T06:10:34.201Z,5.93
2023-02-16T06:11:33.395Z,5.89
2023-02-16T06:12:34.705Z,5.81
2023-02-16T06:13:33.724Z,5.91
2023-02-16T06:14:33.891Z,5.82
2023-02-16T06:15:34.057Z,5.86
2023-02-16T06:16:34.241Z,5.78
2023-02-16T06:17:34.404Z,5.85
2023-02-16T06:18:34.587Z,5.78
2023-02-16T06:19:34.794Z,5.73
2023-02-16T06:20:35.744Z,5.74
2023-02-16T06:21:35.160Z,5.82
2023-02-16T06:22:35.342Z,5.82
2023-02-16T06:23:35.519Z,5.86
2023-02-16T06:24:35.723Z,5.83
2023-02-16T06:25:35.889Z,5.88
2023-02-16T06:26:36.796Z,5.77
2023-02-16T06:27:36.741Z,5.68
2023-02-16T06:28:36.387Z,5.63
2023-02-16T06:29:36.538Z,5.66
2023-02-16T06:30:36.781Z,5.55
2023-02-16T06:31:37.238Z,5.78
2023-02-16T06:32:37.736Z,5.92
2023-02-16T06:33:38.112Z,6.10
2023-02-16T06:34:37.377Z,6.09
2023-02-16T06:35:38.241Z,6.01
2023-02-16T06:36:40.098Z,6.07
2023-02-16T06:37:38.020Z,6.01
2023-02-16T06:38:38.169Z,5.92
2023-02-16T06:39:39.330Z,5.92
2023-02-16T06:40:38.490Z,5.82
2023-02-16T06:41:38.651Z,5.81
2023-02-16T06:42:39.709Z,5.70
2023-02-16T06:43:39.018Z,5.77
2023-02-16T06:44:39.170Z,5.75
2023-02-16T06:45:40.205Z,5.91
2023-02-16T06:46:39.596Z,5.98
2023-02-16T06:47:39.659Z,5.95
2023-02-16T06:48:39.835Z,5.81
2023-02-16T06:49:40.031Z,5.85
2023-02-16T06:50:40.743Z,6.11
2023-02-16T06:51:41.704Z,6.28
2023-02-16T06:52:40.593Z,6.30
2023-02-16T06:53:41.705Z,6.40
2023-02-16T06:54:42.204Z,6.61
2023-02-16T06:55:41.087Z,6.71
2023-02-16T06:56:41.250Z,6.87
2023-02-16T06:57:41.387Z,6.91
2023-02-16T06:58:41.553Z,6.79
2023-02-16T06:59:41.721Z,6.79
2023-02-16T07:00:42.734Z,6.94
2023-02-16T07:01:45.309Z,7.01
2023-02-16T07:02:43.705Z,7.13
2023-02-16T07:03:42.363Z,7.20
2023-02-16T07:04:42.577Z,7.26
2023-02-16T07:05:42.732Z,7.52
2023-02-16T07:06:42.899Z,7.72
2023-02-16T07:07:43.051Z,7.81
2023-02-16T07:08:43.744Z,7.89
2023-02-16T07:09:44.717Z,7.97
2023-02-16T07:10:49.723Z,8.08
2023-02-16T07:11:45.825Z,8.10
2023-02-16T07:12:45.711Z,8.15
2023-02-16T07:13:44.706Z,8.10
2023-02-16T07:14:44.416Z,8.22
2023-02-16T07:15:45.214Z,8.10
2023-02-16T07:16:44.730Z,8.25
2023-02-16T07:17:44.905Z,8.20
2023-02-16T07:18:45.084Z,8.15
2023-02-16T07:19:45.297Z,8.21
2023-02-16T07:20:45.485Z,8.21
2023-02-16T07:21:45.709Z,8.18
2023-02-16T07:22:45.894Z,8.29
2023-02-16T07:23:46.102Z,8.20
2023-02-16T07:24:47.711Z,8.30
2023-02-16T07:25:47.256Z,8.32
2023-02-16T07:26:46.677Z,8.40
2023-02-16T07:27:46.869Z,8.39
2023-02-16T07:28:47.039Z,8.35
2023-02-16T07:29:48.207Z,8.33
2023-02-16T07:30:47.368Z,8.39
2023-02-16T07:31:48.443Z,8.40
2023-02-16T07:32:48.749Z,8.39
2023-02-16T07:33:48.274Z,8.45
2023-02-16T07:34:48.587Z,8.47
2023-02-16T07:35:48.269Z,8.39
2023-02-16T07:36:48.477Z,8.39
2023-02-16T07:37:48.658Z,8.42
2023-02-16T07:38:48.851Z,8.47
2023-02-16T07:39:49.047Z,8.50
2023-02-16T07:40:50.339Z,8.47
2023-02-16T07:41:49.485Z,8.47
2023-02-16T07:42:49.690Z,8.55
2023-02-16T07:43:49.886Z,8.81
2023-02-16T07:44:50.717Z,9.24
2023-02-16T07:45:50.290Z,9.32
2023-02-16T07:46:51.079Z,9.34
2023-02-16T07:47:52.214Z,9.40
2023-02-16T07:48:50.827Z,9.24
2023-02-16T07:49:50.977Z,9.15
2023-02-16T07:50:51.150Z,9.02
2023-02-16T07:51:51.336Z,8.97
2023-02-16T07:52:51.488Z,8.97
2023-02-16T07:53:52.267Z,8.84
2023-02-16T07:54:51.777Z,8.87
2023-02-16T07:55:52.721Z,8.83
2023-02-16T07:56:52.267Z,8.75
2023-02-16T07:57:52.265Z,8.76
2023-02-16T07:58:52.444Z,8.83
2023-02-16T07:59:53.253Z,8.66
2023-02-16T08:00:53.578Z,8.69
2023-02-16T08:01:54.103Z,8.78
2023-02-16T08:02:53.871Z,8.66
2023-02-16T08:03:53.219Z,8.69
2023-02-16T08:04:53.471Z,8.69
2023-02-16T08:05:54.516Z,8.62
2023-02-16T08:06:54.257Z,8.68
2023-02-16T08:07:53.760Z,8.71
2023-02-16T08:08:53.920Z,8.69
2023-02-16T08:09:54.062Z,8.66
2023-02-16T08:10:54.736Z,8.71
2023-02-16T08:11:54.353Z,8.65
2023-02-16T08:12:54.476Z,8.63
2023-02-16T08:13:55.218Z,8.60
2023-02-16T08:14:54.829Z,8.65
2023-02-16T08:15:55.964Z,8.60
2023-02-16T08:16:56.695Z,8.51
2023-02-16T08:17:56.446Z,8.62
2023-02-16T08:18:56.260Z,8.58
2023-02-16T08:19:56.732Z,8.47
2023-02-16T08:21:04.149Z,8.58
2023-02-16T08:21:58.219Z,8.48
2023-02-16T08:22:56.448Z,8.47
2023-02-16T08:23:57.272Z,8.51
2023-02-16T08:24:56.792Z,8.48
2023-02-16T08:25:56.934Z,8.42
2023-02-16T08:26:57.589Z,8.44
2023-02-16T08:27:58.725Z,8.42
2023-02-16T08:28:57.346Z,8.36
2023-02-16T08:29:57.878Z,8.29
2023-02-16T08:30:57.687Z,8.36
2023-02-16T08:31:58.816Z,8.37
2023-02-16T08:32:58.772Z,8.42
2023-02-16T08:33:58.298Z,8.47
2023-02-16T08:34:59.099Z,8.39
2023-02-16T08:35:58.611Z,8.45
2023-02-16T08:36:59.777Z,8.39
2023-02-16T08:37:59.737Z,8.45
2023-02-16T08:38:59.174Z,8.54
2023-02-16T08:40:00.230Z,8.55
2023-02-16T08:41:01.255Z,8.51
2023-02-16T08:41:59.652Z,8.57
2023-02-16T08:42:59.836Z,8.53
2023-02-16T08:44:00.827Z,8.54
2023-02-16T08:45:01.228Z,8.53
2023-02-16T08:46:00.625Z,8.57
2023-02-16T08:47:00.702Z,8.54
2023-02-16T08:48:00.884Z,8.51
2023-02-16T08:49:01.073Z,8.54
2023-02-16T08:50:01.240Z,8.60
2023-02-16T08:51:01.436Z,8.65
2023-02-16T08:52:01.759Z,8.68
2023-02-16T08:53:01.724Z,8.81
2023-02-16T08:54:05.544Z,8.83
2023-02-16T08:55:02.080Z,8.91
2023-02-16T08:56:02.720Z,8.90
2023-02-16T08:57:02.414Z,8.94
2023-02-16T08:58:02.586Z,9.04
2023-02-16T08:59:02.766Z,8.99
2023-02-16T09:00:02.936Z,9.09
2023-02-16T09:01:03.795Z,9.15
2023-02-16T09:02:03.277Z,9.12
2023-02-16T09:03:03.464Z,9.25
2023-02-16T09:04:04.270Z,9.23
2023-02-16T09:05:03.797Z,9.20
2023-02-16T09:06:04.344Z,9.20
2023-02-16T09:07:04.293Z,9.13
2023-02-16T09:08:04.358Z,9.15
2023-02-16T09:09:06.243Z,9.13
2023-02-16T09:10:04.763Z,9.16
2023-02-16T09:11:06.114Z,8.99
2023-02-16T09:12:05.181Z,8.93
2023-02-16T09:13:05.389Z,8.91
2023-02-16T09:14:05.605Z,8.91
2023-02-16T09:15:05.842Z,8.87
2023-02-16T09:16:06.385Z,8.91
2023-02-16T09:17:06.287Z,8.88
2023-02-16T09:18:06.434Z,8.97
2023-02-16T09:19:07.280Z,8.94
2023-02-16T09:20:06.808Z,8.87
2023-02-16T09:21:06.991Z,8.94
2023-02-16T09:22:07.185Z,8.96
2023-02-16T09:23:07.364Z,8.97
2023-02-16T09:24:08.274Z,8.96
2023-02-16T09:25:08.743Z,9.09
2023-02-16T09:26:08.744Z,9.02
2023-02-16T09:27:08.599Z,9.20
2023-02-16T09:28:08.139Z,9.16
2023-02-16T09:29:09.097Z,9.21
2023-02-16T09:30:10.152Z,9.28
2023-02-16T09:31:09.942Z,9.28
2023-02-16T09:32:08.911Z,9.42
2023-02-16T09:33:09.075Z,9.52
2023-02-16T09:34:09.268Z,9.56
2023-02-16T09:35:09.443Z,9.64
2023-02-16T09:36:10.239Z,9.64
2023-02-16T09:37:09.791Z,9.67
2023-02-16T09:38:09.955Z,9.64
2023-02-16T09:39:10.142Z,9.71
2023-02-16T09:40:13.744Z,9.79
2023-02-16T09:41:11.815Z,9.71
2023-02-16T09:42:11.793Z,9.67
2023-02-16T09:43:10.804Z,9.75
2023-02-16T09:44:13.247Z,9.85
2023-02-16T09:45:11.784Z,9.83
2023-02-16T09:46:11.341Z,9.82
2023-02-16T09:47:11.410Z,9.91
2023-02-16T09:48:11.607Z,9.96
2023-02-16T09:49:12.744Z,10.04
2023-02-16T09:50:11.876Z,10.07
2023-02-16T09:51:12.786Z,10.07
2023-02-16T09:52:12.791Z,10.34
2023-02-16T09:53:12.324Z,10.55
2023-02-16T09:54:13.246Z,10.58
2023-02-16T09:55:13.749Z,10.66
2023-02-16T09:56:12.866Z,10.55
2023-02-16T09:57:13.764Z,10.53
2023-02-16T09:58:14.255Z,10.53
2023-02-16T09:59:13.530Z,10.74
2023-02-16T10:00:13.669Z,10.78
2023-02-16T10:01:13.874Z,10.71
2023-02-16T10:02:14.094Z,10.63
2023-02-16T10:03:14.288Z,10.47
2023-02-16T10:04:14.493Z,10.59
2023-02-16T10:05:14.667Z,10.58
2023-02-16T10:06:14.841Z,11.07
2023-02-16T10:07:15.057Z,11.34
2023-02-16T10:08:15.249Z,11.43
2023-02-16T10:09:15.458Z,11.34
2023-02-16T10:10:15.622Z,11.41
2023-02-16T10:11:15.803Z,11.29
2023-02-16T10:12:17.251Z,11.39
2023-02-16T10:13:17.610Z,11.41
2023-02-16T10:14:16.337Z,11.62
2023-02-16T10:15:16.481Z,11.83
2023-02-16T10:16:16.705Z,12.13
2023-02-16T10:17:16.889Z,12.08
2023-02-16T10:18:17.059Z,12.08
2023-02-16T10:19:17.226Z,11.72
2023-02-16T10:20:17.432Z,11.29
2023-02-16T10:21:17.657Z,11.19
2023-02-16T10:22:18.309Z,10.84
2023-02-16T10:23:17.947Z,11.02
2023-02-16T10:24:18.768Z,11.13
2023-02-16T10:25:19.252Z,11.14
2023-02-16T10:26:18.463Z,11.24
2023-02-16T10:27:18.613Z,11.24
2023-02-16T10:28:19.856Z,10.99
2023-02-16T10:29:18.989Z,10.86
2023-02-16T10:30:19.335Z,10.66
2023-02-16T10:31:22.373Z,10.55
2023-02-16T10:32:19.490Z,10.46
2023-02-16T10:33:19.806Z,10.40
2023-02-16T10:34:21.949Z,10.28
2023-02-16T10:35:19.941Z,10.18
2023-02-16T10:36:23.619Z,10.21
2023-02-16T10:37:20.322Z,10.17
2023-02-16T10:38:21.298Z,10.12
2023-02-16T10:39:20.815Z,10.25
2023-02-16T10:40:23.229Z,10.39
2023-02-16T10:41:22.147Z,10.33
2023-02-16T10:42:22.764Z,10.43
2023-02-16T10:43:22.266Z,10.47
2023-02-16T10:44:21.545Z,10.43
2023-02-16T10:45:22.309Z,10.59
2023-02-16T10:46:21.836Z,10.55
2023-02-16T10:47:23.762Z,10.55
2023-02-16T10:48:22.144Z,10.51
2023-02-16T10:49:22.371Z,10.55
2023-02-16T10:50:22.513Z,10.53
2023-02-16T10:51:25.390Z,10.46
2023-02-16T10:52:22.895Z,10.47
2023-02-16T10:53:23.763Z,10.55
2023-02-16T10:54:24.263Z,10.62
2023-02-16T10:55:23.508Z,10.55
2023-02-16T10:56:23.706Z,10.56
2023-02-16T10:57:23.864Z,10.43
2023-02-16T10:58:24.011Z,10.42
2023-02-16T10:59:24.166Z,10.36
2023-02-16T11:00:24.344Z,10.40
2023-02-16T11:01:24.544Z,10.52
2023-02-16T11:02:24.722Z,10.53
2023-02-16T11:03:24.946Z,10.33
2023-02-16T11:04:25.131Z,10.40
2023-02-16T11:05:25.281Z,10.22
2023-02-16T11:06:26.459Z,10.22
2023-02-16T11:07:26.276Z,10.15
2023-02-16T11:08:25.821Z,10.18
2023-02-16T11:09:27.776Z,10.10
2023-02-16T11:10:26.172Z,10.06
2023-02-16T11:11:28.285Z,10.09
2023-02-16T11:12:27.315Z,10.00
2023-02-16T11:13:26.727Z,9.94
2023-02-16T11:14:26.919Z,10.00
2023-02-16T11:15:27.115Z,10.01
2023-02-16T11:16:27.305Z,9.91
2023-02-16T11:17:28.280Z,9.89
2023-02-16T11:18:27.687Z,9.82
2023-02-16T11:19:30.236Z,9.89
2023-02-16T11:20:28.099Z,9.75
2023-02-16T11:21:29.284Z,9.75
2023-02-16T11:22:29.142Z,9.66
2023-02-16T11:23:28.551Z,9.75
2023-02-16T11:24:29.297Z,9.67
2023-02-16T11:25:28.988Z,9.66
2023-02-16T11:26:29.791Z,9.71
2023-02-16T11:27:29.331Z,9.67
2023-02-16T11:28:32.092Z,9.67
2023-02-16T11:29:29.657Z,9.66
2023-02-16T11:30:29.992Z,9.70
2023-02-16T11:31:30.090Z,9.73
2023-02-16T11:32:30.204Z,9.71
2023-02-16T11:33:30.390Z,9.75
2023-02-16T11:34:30.571Z,9.67
2023-02-16T11:35:30.794Z,9.70
2023-02-16T11:36:30.959Z,9.68
2023-02-16T11:37:31.132Z,9.78
2023-02-16T11:38:31.463Z,9.73
2023-02-16T11:39:32.505Z,9.76
2023-02-16T11:40:32.328Z,9.63
2023-02-16T11:41:31.881Z,9.71
2023-02-16T11:42:32.822Z,9.76
2023-02-16T11:43:33.291Z,9.86
2023-02-16T11:44:32.430Z,9.88
2023-02-16T11:45:32.522Z,9.88
2023-02-16T11:46:32.695Z,9.94
2023-02-16T11:47:32.802Z,9.91
2023-02-16T11:48:33.780Z,9.83
2023-02-16T11:49:33.181Z,9.96
2023-02-16T11:50:33.316Z,9.93
2023-02-16T11:51:33.864Z,10.03
2023-02-16T11:52:34.290Z,10.10
2023-02-16T11:53:33.835Z,10.07
2023-02-16T11:54:34.780Z,10.10
2023-02-16T11:55:34.148Z,10.10
2023-02-16T11:56:34.319Z,10.26
2023-02-16T11:57:34.478Z,10.42
2023-02-16T11:58:34.621Z,10.37
2023-02-16T11:59:34.782Z,10.34
2023-02-16T12:00:34.924Z,10.37
2023-02-16T12:01:35.114Z,10.44
2023-02-16T12:02:35.826Z,10.44
2023-02-16T12:03:36.235Z,10.47
2023-02-16T12:04:36.328Z,10.53
2023-02-16T12:05:35.898Z,10.51
2023-02-16T12:06:36.093Z,10.55
2023-02-16T12:07:36.791Z,10.56
2023-02-16T12:08:36.429Z,10.60
2023-02-16T12:09:38.284Z,10.56
2023-02-16T12:10:36.758Z,10.65
2023-02-16T12:11:37.825Z,10.66
2023-02-16T12:12:37.372Z,10.74
2023-02-16T12:13:39.786Z,10.77
2023-02-16T12:14:37.526Z,10.81
2023-02-16T12:15:38.645Z,10.80
2023-02-16T12:16:38.003Z,10.91
2023-02-16T12:17:38.789Z,10.83
2023-02-16T12:18:38.342Z,10.96
2023-02-16T12:19:38.838Z,10.81
2023-02-16T12:20:38.842Z,10.88
2023-02-16T12:21:38.890Z,10.91
2023-02-16T12:22:39.041Z,10.86
2023-02-16T12:23:40.287Z,10.86
2023-02-16T12:24:40.325Z,10.91
2023-02-16T12:25:40.787Z,11.06
2023-02-16T12:26:39.848Z,11.02
2023-02-16T12:27:40.008Z,11.09
2023-02-16T12:28:40.200Z,11.17
2023-02-16T12:29:40.404Z,11.19
2023-02-16T12:30:40.652Z,11.13
2023-02-16T12:31:40.872Z,11.11
2023-02-16T12:32:41.074Z,11.10
2023-02-16T12:33:43.194Z,11.10
2023-02-16T12:34:43.334Z,11.16
2023-02-16T12:35:41.593Z,11.13
2023-02-16T12:36:42.295Z,11.09
2023-02-16T12:37:41.954Z,11.09
2023-02-16T12:38:42.155Z,10.95
2023-02-16T12:39:42.835Z,10.83
2023-02-16T12:40:43.325Z,10.86
2023-02-16T12:41:42.837Z,10.91
2023-02-16T12:42:42.883Z,10.84
2023-02-16T12:43:43.054Z,10.76
2023-02-16T12:44:43.791Z,10.78
2023-02-16T12:45:44.314Z,10.83
2023-02-16T12:46:43.735Z,10.86
2023-02-16T12:47:43.919Z,10.94
2023-02-16T12:48:44.095Z,10.98
2023-02-16T12:49:44.284Z,10.95
2023-02-16T12:50:44.440Z,10.99
2023-02-16T12:51:45.295Z,10.98
2023-02-16T12:52:44.819Z,11.02
2023-02-16T12:53:44.961Z,11.01
2023-02-16T12:54:45.802Z,10.98
2023-02-16T12:55:46.292Z,11.10
2023-02-16T12:56:45.565Z,11.13
2023-02-16T12:57:47.294Z,11.13
2023-02-16T12:58:45.929Z,11.07
2023-02-16T12:59:46.794Z,11.16
2023-02-16T13:00:46.396Z,11.10
2023-02-16T13:01:47.293Z,11.06
2023-02-16T13:02:47.793Z,11.02
2023-02-16T13:03:46.970Z,11.09
2023-02-16T13:04:47.132Z,11.13
2023-02-16T13:05:47.274Z,11.17
2023-02-16T13:06:47.445Z,11.19
2023-02-16T13:07:47.619Z,11.17
2023-02-16T13:08:47.797Z,11.19
2023-02-16T13:09:47.936Z,11.28
2023-02-16T13:10:48.078Z,11.27
2023-02-16T13:11:48.231Z,11.20
2023-02-16T13:12:48.462Z,11.19
2023-02-16T13:13:50.302Z,11.13
2023-02-16T13:14:49.339Z,11.07